Terminal Aerodrome Forecast
Issued by NWS

Home | Current Version | Previous Version | Text Only | Print | Product List | Glossary On
Versions: 1 2 3 4 5 6 7 8 9 10 11 12 13 14 15 16 17 18 19 20 21 22 23 24 25 26 27
000
FTUS41 KAKQ 021100 CCA
TAFPHF
TAF COR
KPHF 021158Z 0212/0312 03005KT P6SM SCT020 BKN050
     FM022200 06004KT P6SM SKC
     FM030400 00000KT 4SM BR SCT010 BKN040
     FM030800 00000KT 4SM BR BKN006 BKN040=

USA.gov is the U.S. government's official web portal to all federal, state and local government web resources and services.